首页
METAR-TAF:

METAR-TAF

机场 :

空军基地 Lanvéoc-Poulmic

Lanvéoc, 法国

纬度: 48-17N, 经度: 004-26W, 海拔: 87米

当前天气观测

该预报发布于26分钟前的18:30 UTC
风速7节,风向西转西北
温度 22°C
湿度 69%
气压 1021 hPa
能见度10公里或以上
1500米以下无云,无积雨云

METAR: LFRL 221830Z AUTO 29007KT CAVOK 22/16 Q1021 NOSIG

时间: 20:56 (18:56 UTC)

预报

该预报发布于7小时和56分钟前的11:00 UTC
预报有效从22日的 12点(UTC)到 23日的 12点(UTC)
风速5节,风向北转西北
能见度10公里或以上
少量云层高于2000英尺
几率 30% :
短暂存在
从 23日的 03点(UTC)到 23日的 06点(UTC)
能見度: 4000
轻雾

TAF: LFRL 221100Z 2212/2312 33005KT 9999 FEW020 PROB30 TEMPO 2303/2306 4000 BR

超过4000个机场的气象观测和天气预报(METAR&TAF报告)。

可查询的气象台以黄色和红色小点在地图上表示。

将鼠标移到小点上方,可查看气象台名称。

然后点击查看天气观测和预报。

如需切换地图:点击带黑十字的绿色按钮放大地图;点击带横线的绿色按钮缩小地图;或者点击绿色箭头查看邻近地区的地图。


METAR-TAF: